Hishimaru — JD3929 — position and weather

sailwx.info

Track history (hours):
 
Tides and Currents Weather Stations Pressure Air Temp Water Temp Dewpoint Dewpoint Depression Visibility Wind Speed Wind Dir Waves Ship Positions

Hishimaru

Last reported at 2018-Feb-21 06:25 UTC. Time now 2018-Feb-22 04:33 UTC.
Position N 35°03' E 139°44'.

Length 67 m; draft 4 m.

Type: Tanker. MMSI: 431007082.

Date/timePositionNaut miles runAvg speedWind from/ knotsBaromVisibWave heightAir tempDewpointWater temp
2018-Feb-21 06:25N 35°03' E 139°44'512.1
2018-Feb-21 06:00N 35°08' E 139°45'612.7
2018-Feb-21 05:30N 35°14' E 139°46'612.8
2018-Feb-21 05:01N 35°20' E 139°43'612.0
2018-Feb-21 04:30N 35°26' E 139°45'713.1
2018-Feb-21 04:00N 35°30' E 139°51'712.9
2018-Feb-21 03:30N 35°33' E 139°58'612.7
2018-Feb-21 03:00N 35°36' E 140°05'1 1.9
2018-Feb-21 02:30N 35°36' E 140°06'0 0.0
2018-Feb-21 01:54N 35°36' E 140°06'0 0.0
2018-Feb-21 01:27N 35°36' E 140°06'0 0.0
2018-Feb-21 01:00N 35°36' E 140°06'0 0.0
2018-Feb-21 00:30N 35°36' E 140°06'0 0.0
2018-Feb-20 23:54N 35°36' E 140°06'0 0.0
2018-Feb-20 23:30N 35°36' E 140°06'0 0.0
2018-Feb-20 23:00N 35°36' E 140°06'0 0.0
2018-Feb-20 22:30N 35°36' E 140°06'0 0.0
2018-Feb-20 22:00N 35°36' E 140°06'0 0.0
2018-Feb-20 21:30N 35°36' E 140°06'0 0.0
2018-Feb-20 21:00N 35°36' E 140°06'0 0.0
2018-Feb-20 20:30N 35°36' E 140°06'0 0.0
2018-Feb-20 20:00N 35°36' E 140°06'0 0.0
2018-Feb-20 19:30N 35°36' E 140°06'0 0.0
2018-Feb-20 19:00N 35°36' E 140°06'0 0.0
2018-Feb-20 18:30N 35°36' E 140°06'0 0.0
2018-Feb-20 18:00N 35°36' E 140°06'0 0.0
2018-Feb-20 17:27N 35°36' E 140°06'0 0.0
2018-Feb-20 17:00N 35°36' E 140°06'0 0.0
2018-Feb-20 16:30N 35°36' E 140°06'0 0.0
2018-Feb-20 15:54N 35°36' E 140°06'0 0.0
2018-Feb-20 15:27N 35°36' E 140°06'0 0.0
2018-Feb-20 15:00N 35°36' E 140°06'0 0.0
2018-Feb-20 14:30N 35°36' E 140°06'0 0.0
2018-Feb-20 14:00N 35°36' E 140°06'0 0.0
2018-Feb-20 13:30N 35°36' E 140°06'0 0.0
2018-Feb-20 13:00N 35°36' E 140°06'0 0.0
2018-Feb-20 12:30N 35°36' E 140°06'0 0.0
2018-Feb-20 11:48N 35°36' E 140°06'0 0.0
2018-Feb-20 11:30N 35°36' E 140°06'0 0.0
2018-Feb-20 11:00N 35°36' E 140°06'0 0.0
2018-Feb-20 10:30N 35°36' E 140°06'0 0.0
2018-Feb-20 10:00N 35°36' E 140°06'0 0.0
2018-Feb-20 09:30N 35°36' E 140°06'0 0.0
2018-Feb-20 09:00N 35°36' E 140°06'0 0.0
2018-Feb-20 08:30N 35°36' E 140°06'0 0.0
2018-Feb-20 08:00N 35°36' E 140°06'0 0.0
2018-Feb-20 07:30N 35°36' E 140°06'0 0.0
2018-Feb-20 06:54N 35°36' E 140°06'0 0.0
2018-Feb-20 06:30N 35°36' E 140°06'0 0.0
2018-Feb-20 06:00N 35°36' E 140°06'0 0.0
2018-Feb-20 05:30N 35°36' E 140°06'0 0.0
2018-Feb-20 05:00N 35°36' E 140°06'0 0.0
2018-Feb-20 04:30N 35°36' E 140°06'0 0.0
2018-Feb-20 04:00N 35°36' E 140°06'4 8.8
2018-Feb-20 03:30N 35°35' E 140°01'612.7
2018-Feb-20 03:00N 35°32' E 139°54'612.3
2018-Feb-20 02:30N 35°30' E 139°47'2 0.6
2018-Feb-20 00:02N 35°32' E 139°46'0 0.0
2018-Feb-20 00:00N 35°32' E 139°46'2 3.3
2018-Feb-19 23:30N 35°30' E 139°47'3 5.1
2018-Feb-19 23:01N 35°28' E 139°48'612.4
2018-Feb-19 22:31N 35°22' E 139°45'611.2
2018-Feb-19 22:01N 35°17' E 139°46'611.9
2018-Feb-19 21:30N 35°11' E 139°46'1112.0
2018-Feb-19 20:35N 35°02' E 139°39'212.4
2018-Feb-19 20:28N 35°01' E 139°37'2412.7
2018-Feb-19 18:34N 34°46' E 139°14'213.9
2018-Feb-19 18:26N 34°45' E 139°12'612.9
2018-Feb-19 18:00N 34°41' E 139°07'1013.4
2018-Feb-19 17:14N 34°36' E 138°57'10312.7
2018-Feb-19 09:06N 34°39' E 136°51'112.1
2018-Feb-19 08:59N 34°40' E 136°50'612.7
2018-Feb-19 08:30N 34°46' E 136°47'612.4
2018-Feb-19 08:00N 34°52' E 136°46'612.3
2018-Feb-19 07:30N 34°58' E 136°48'611.7
2018-Feb-19 07:01N 35°03' E 136°51'3 4.9
2018-Feb-19 06:29N 35°05' E 136°53'0 0.0
2018-Feb-19 05:59N 35°05' E 136°53'0 0.0
2018-Feb-19 05:29N 35°05' E 136°53'0 0.0
2018-Feb-19 04:23N 35°05' E 136°53'0 0.0
2018-Feb-19 03:59N 35°05' E 136°53'0 0.3
2018-Feb-19 03:31N 35°05' E 136°53'5 9.6
2018-Feb-19 03:00N 35°01' E 136°49'611.1
2018-Feb-19 02:30N 34°58' E 136°43'4 1.3
2018-Feb-18 23:36N 34°58' E 136°39'0 1.7
2018-Feb-18 23:30N 34°58' E 136°39'1 2.0
2018-Feb-18 23:00N 34°57' E 136°40'0 0.0
2018-Feb-18 22:27N 34°57' E 136°40'0 0.0
2018-Feb-18 22:00N 34°57' E 136°40'0 0.0
2018-Feb-18 21:27N 34°57' E 136°40'0 0.0
2018-Feb-18 21:00N 34°57' E 136°40'0 0.0
2018-Feb-18 20:30N 34°57' E 136°40'0 0.0
2018-Feb-18 19:57N 34°57' E 136°40'0 0.0
2018-Feb-18 19:30N 34°57' E 136°40'0 0.0
2018-Feb-18 19:00N 34°57' E 136°40'0 0.0
2018-Feb-18 18:30N 34°57' E 136°40'0 0.0
2018-Feb-18 18:00N 34°57' E 136°40'0 0.0
2018-Feb-18 17:30N 34°57' E 136°40'0 0.0
2018-Feb-18 17:00N 34°57' E 136°40'0 0.0
2018-Feb-18 16:30N 34°57' E 136°40'0 0.0
2018-Feb-18 15:57N 34°57' E 136°40'0 0.0
2018-Feb-18 15:30N 34°57' E 136°40'0 0.0
2018-Feb-18 15:00N 34°57' E 136°40'0 0.0
2018-Feb-18 14:30N 34°57' E 136°40'0 0.0
2018-Feb-18 13:57N 34°57' E 136°40'0 0.0
2018-Feb-18 13:30N 34°57' E 136°40'0 0.0
2018-Feb-18 13:00N 34°57' E 136°40'0 0.0
2018-Feb-18 12:30N 34°57' E 136°40'0 0.0
2018-Feb-18 12:00N 34°57' E 136°40'0 0.0
2018-Feb-18 11:30N 34°57' E 136°40'0 0.0
2018-Feb-18 11:00N 34°57' E 136°40'0 0.0
2018-Feb-18 10:30N 34°57' E 136°40'0 0.0
2018-Feb-18 09:57N 34°57' E 136°40'0 0.0
2018-Feb-18 09:27N 34°57' E 136°40'0 0.0
2018-Feb-18 09:00N 34°57' E 136°40'0 0.0
2018-Feb-18 08:27N 34°57' E 136°40'0 0.0
2018-Feb-18 08:00N 34°57' E 136°40'0 0.0
2018-Feb-18 07:30N 34°57' E 136°40'0 0.0
2018-Feb-18 06:57N 34°57' E 136°40'0 0.0
2018-Feb-18 06:30N 34°57' E 136°40'0 0.0
2018-Feb-18 06:00N 34°57' E 136°40'0 0.0
2018-Feb-18 05:30N 34°57' E 136°40'0 0.0
2018-Feb-18 05:00N 34°57' E 136°40'0 0.0
2018-Feb-18 04:30N 34°57' E 136°40'0 0.1
2018-Feb-18 04:00N 34°57' E 136°40'0 0.1
2018-Feb-18 03:30N 34°57' E 136°40'0 0.1
2018-Feb-18 03:00N 34°57' E 136°40'0 0.0
2018-Feb-18 02:30N 34°57' E 136°40'0 0.0
2018-Feb-18 02:00N 34°57' E 136°40'0 0.0
2018-Feb-18 01:30N 34°57' E 136°40'0 0.0
2018-Feb-18 01:00N 34°57' E 136°40'0 0.0
2018-Feb-18 00:21N 34°57' E 136°40'0 0.0
2018-Feb-17 23:57N 34°57' E 136°40'0 0.0
2018-Feb-17 23:30N 34°57' E 136°40'0 0.0
2018-Feb-17 23:00N 34°57' E 136°40'0 0.0
2018-Feb-17 22:30N 34°57' E 136°40'0 0.0
2018-Feb-17 22:00N 34°57' E 136°40'5 9.1
2018-Feb-17 21:30N 34°53' E 136°43'612.4
2018-Feb-17 21:00N 34°48' E 136°46'612.2
2018-Feb-17 20:30N 34°43' E 136°50'103 8.3
2018-Feb-17 07:58N 33°51' E 135°02'613.3
2018-Feb-17 07:31N 33°56' E 134°57'713.2
2018-Feb-17 07:00N 34°01' E 134°52'1013.4
2018-Feb-17 06:16N 34°09' E 134°44'514.1
2018-Feb-17 05:54N 34°13' E 134°40'613.7
2018-Feb-17 05:29N 34°17' E 134°35'713.3
2018-Feb-17 04:59N 34°19' E 134°28'87 5.0
2018-Feb-16 11:25N 33°60' E 132°45'614.2
2018-Feb-16 11:00N 33°56' E 132°40'714.1
2018-Feb-16 10:30N 33°52' E 132°32'813.7
2018-Feb-16 09:54N 33°50' E 132°23'613.8
2018-Feb-16 09:28N 33°50' E 132°15'613.3
2018-Feb-16 09:00N 33°48' E 132°08'612.8
2018-Feb-16 08:30N 33°46' E 132°01'712.9
2018-Feb-16 08:00N 33°46' E 131°53'613.0
2018-Feb-16 07:30N 33°47' E 131°46'713.0
2018-Feb-16 07:00N 33°48' E 131°38'713.2
2018-Feb-16 06:30N 33°50' E 131°30'713.4
2018-Feb-16 06:00N 33°51' E 131°22'713.6
2018-Feb-16 05:30N 33°52' E 131°14'4 6.3
2018-Feb-16 04:54N 33°56' E 131°15'0 0.0
2018-Feb-16 04:30N 33°56' E 131°15'0 0.0
2018-Feb-16 04:00N 33°56' E 131°15'0 0.0
2018-Feb-16 03:27N 33°56' E 131°15'0 0.0
2018-Feb-16 03:00N 33°56' E 131°15'0 0.0
2018-Feb-16 02:18N 33°56' E 131°15'0 0.0
2018-Feb-16 01:58N 33°56' E 131°15'3 6.2
2018-Feb-16 01:30N 33°56' E 131°12'1 1.8
2018-Feb-16 00:59N 33°56' E 131°12'0 0.0
2018-Feb-16 00:29N 33°56' E 131°12'0 0.0
2018-Feb-15 23:59N 33°56' E 131°12'0 0.0
2018-Feb-15 23:29N 33°56' E 131°12'1 1.6
2018-Feb-15 23:00N 33°56' E 131°12'1 2.3
2018-Feb-15 22:30N 33°55' E 131°11'0 0.0
2018-Feb-15 22:00N 33°55' E 131°11'0 0.0
2018-Feb-15 21:30N 33°55' E 131°11'0 0.0
2018-Feb-15 21:00N 33°55' E 131°11'0 0.0
2018-Feb-15 20:30N 33°55' E 131°11'0 0.0
2018-Feb-15 20:00N 33°55' E 131°11'0 0.0
2018-Feb-15 19:30N 33°55' E 131°11'0 0.0
2018-Feb-15 19:00N 33°55' E 131°11'0 0.0
2018-Feb-15 18:30N 33°55' E 131°11'0 0.0
2018-Feb-15 18:00N 33°55' E 131°11'0 0.1
2018-Feb-15 17:30N 33°55' E 131°11'0 0.0
2018-Feb-15 17:00N 33°55' E 131°11'0 0.0
2018-Feb-15 16:27N 33°55' E 131°11'0 0.0
2018-Feb-15 16:00N 33°55' E 131°11'0 0.0
2018-Feb-15 15:30N 33°55' E 131°11'0 0.0
2018-Feb-15 15:00N 33°55' E 131°11'0 0.0
2018-Feb-15 14:30N 33°55' E 131°11'0 0.0
2018-Feb-15 14:00N 33°55' E 131°11'0 0.0
2018-Feb-15 13:30N 33°55' E 131°11'0 0.0
2018-Feb-15 13:00N 33°55' E 131°11'1 1.9
2018-Feb-15 12:30N 33°54' E 131°12'612.6
2018-Feb-15 12:01N 33°51' E 131°19'713.3
2018-Feb-15 11:31N 33°50' E 131°27'713.2
2018-Feb-15 11:00N 33°49' E 131°35'713.3
2018-Feb-15 10:30N 33°48' E 131°43'713.4
2018-Feb-15 10:00N 33°47' E 131°51'912.8
2018-Feb-15 09:19N 33°46' E 132°01'412.8
2018-Feb-15 09:00N 33°47' E 132°06'812.6
2018-Feb-15 08:21N 33°50' E 132°15'412.7
2018-Feb-15 08:00N 33°50' E 132°20'1012.9
2018-Feb-15 07:12N 33°53' E 132°32'313.5
2018-Feb-15 07:00N 33°54' E 132°35'714.1
2018-Feb-15 06:31N 33°58' E 132°42'814.2
2018-Feb-15 05:57N 34°04' E 132°48'79 2.8
2018-Feb-14 01:59N 34°22' E 134°21'612.4
2018-Feb-14 01:30N 34°20' E 134°28'713.0
2018-Feb-14 00:59N 34°17' E 134°35'612.0
2018-Feb-14 00:30N 34°13' E 134°41'612.4
2018-Feb-14 00:00N 34°09' E 134°46'612.5
2018-Feb-13 23:30N 34°04' E 134°51'612.6
2018-Feb-13 23:00N 33°59' E 134°55'712.9
2018-Feb-13 22:29N 33°54' E 135°00'102 7.8
2018-Feb-13 09:26N 34°41' E 136°50'613.0
2018-Feb-13 08:59N 34°46' E 136°47'612.7
2018-Feb-13 08:30N 34°52' E 136°46'612.2
2018-Feb-13 08:00N 34°58' E 136°48'3 5.8
2018-Feb-13 07:28N 35°00' E 136°51'0 0.0
2018-Feb-13 06:58N 35°00' E 136°51'0 0.0
2018-Feb-13 06:28N 35°00' E 136°51'0 0.0
2018-Feb-13 05:59N 35°00' E 136°51'0 0.0
2018-Feb-13 05:29N 35°00' E 136°51'0 0.0
2018-Feb-13 04:59N 35°00' E 136°51'0 0.0
2018-Feb-13 04:28N 35°00' E 136°51'0 0.0
2018-Feb-13 03:58N 35°00' E 136°51'0 0.0
2018-Feb-13 03:28N 35°00' E 136°51'2 3.4
2018-Feb-13 03:01N 34°60' E 136°49'1 2.0
2018-Feb-13 02:28N 34°59' E 136°48'0 0.0
2018-Feb-13 01:55N 34°59' E 136°48'0 0.0
2018-Feb-13 01:25N 34°59' E 136°48'0 0.0
2018-Feb-13 00:58N 34°59' E 136°48'0 0.0
2018-Feb-13 00:28N 34°59' E 136°48'0 0.0
2018-Feb-12 23:58N 34°59' E 136°48'0 0.1
2018-Feb-12 23:28N 34°59' E 136°48'0 0.0
2018-Feb-12 22:58N 34°59' E 136°48'0 0.0
2018-Feb-12 22:28N 34°59' E 136°48'0 0.1
2018-Feb-12 21:58N 34°59' E 136°48'0 0.0
2018-Feb-12 21:28N 34°59' E 136°48'0 0.0
2018-Feb-12 20:58N 34°59' E 136°48'0 0.0
2018-Feb-12 20:28N 34°59' E 136°48'0 0.0
2018-Feb-12 19:58N 34°59' E 136°48'0 0.0
2018-Feb-12 19:28N 34°59' E 136°48'0 0.0
2018-Feb-12 18:58N 34°59' E 136°48'0 0.0
2018-Feb-12 18:25N 34°59' E 136°48'0 0.0
2018-Feb-12 17:58N 34°59' E 136°48'0 0.0
2018-Feb-12 17:28N 34°59' E 136°48'0 0.0
2018-Feb-12 16:58N 34°59' E 136°48'0 0.1
2018-Feb-12 16:28N 34°59' E 136°48'0 0.0
2018-Feb-12 15:58N 34°59' E 136°48'0 0.0
2018-Feb-12 15:16N 34°59' E 136°48'0 0.0
2018-Feb-12 14:58N 34°59' E 136°48'0 0.1
2018-Feb-12 14:28N 34°59' E 136°48'0 0.0
2018-Feb-12 13:55N 34°59' E 136°48'0 0.1
2018-Feb-12 13:28N 34°59' E 136°48'0 0.1
2018-Feb-12 12:58N 34°59' E 136°48'0 0.0
2018-Feb-12 12:28N 34°59' E 136°48'0 0.0
2018-Feb-12 11:58N 34°59' E 136°48'0 0.0
2018-Feb-12 11:28N 34°59' E 136°48'0 0.0
2018-Feb-12 10:58N 34°59' E 136°48'0 0.0
2018-Feb-12 10:28N 34°59' E 136°48'0 0.1
2018-Feb-12 09:58N 34°59' E 136°48'0 0.0
2018-Feb-12 09:28N 34°59' E 136°48'0 0.0
2018-Feb-12 08:58N 34°59' E 136°48'0 0.1
2018-Feb-12 08:28N 34°59' E 136°48'2 3.5
2018-Feb-12 08:00N 34°58' E 136°47'611.9
2018-Feb-12 07:30N 34°52' E 136°47'611.9
2018-Feb-12 07:00N 34°46' E 136°49'2110.7
2018-Feb-12 05:03N 34°34' E 137°10'112.0
2018-Feb-12 04:59N 34°34' E 137°11'4810.5
2018-Feb-12 00:21N 34°35' E 138°09'3 8.9
2018-Feb-11 23:58N 34°34' E 138°13'4 7.8
2018-Feb-11 23:30N 34°36' E 138°17'5 0.3
2018-Feb-11 08:22N 34°40' E 138°13'0 0.0
2018-Feb-11 07:59N 34°40' E 138°13'0 0.0
2018-Feb-11 07:30N 34°40' E 138°13'0 0.0
2018-Feb-11 06:51N 34°40' E 138°13'  
Track history (hours):
 
Tides and Currents Weather Stations Pressure Air Temp Water Temp Dewpoint Dewpoint Depression Visibility Wind Speed Wind Dir Waves Ship Positions

Hishimaru

Last reported at 2018-Feb-21 06:25 UTC. Time now 2018-Feb-22 04:33 UTC.
Position N 35°03' E 139°44'.

Length 67 m; draft 4 m.

Type: Tanker. MMSI: 431007082.

Date/timePositionNaut miles runAvg speedWind from/ knotsBaromVisibWave heightAir tempDewpointWater temp
2018-Feb-21 06:25N 35°03' E 139°44'512.1
2018-Feb-21 06:00N 35°08' E 139°45'612.7
2018-Feb-21 05:30N 35°14' E 139°46'612.8
2018-Feb-21 05:01N 35°20' E 139°43'612.0
2018-Feb-21 04:30N 35°26' E 139°45'713.1
2018-Feb-21 04:00N 35°30' E 139°51'712.9
2018-Feb-21 03:30N 35°33' E 139°58'612.7
2018-Feb-21 03:00N 35°36' E 140°05'1 1.9
2018-Feb-21 02:30N 35°36' E 140°06'0 0.0
2018-Feb-21 01:54N 35°36' E 140°06'0 0.0
2018-Feb-21 01:27N 35°36' E 140°06'0 0.0
2018-Feb-21 01:00N 35°36' E 140°06'0 0.0
2018-Feb-21 00:30N 35°36' E 140°06'0 0.0
2018-Feb-20 23:54N 35°36' E 140°06'0 0.0
2018-Feb-20 23:30N 35°36' E 140°06'0 0.0
2018-Feb-20 23:00N 35°36' E 140°06'0 0.0
2018-Feb-20 22:30N 35°36' E 140°06'0 0.0
2018-Feb-20 22:00N 35°36' E 140°06'0 0.0
2018-Feb-20 21:30N 35°36' E 140°06'0 0.0
2018-Feb-20 21:00N 35°36' E 140°06'0 0.0
2018-Feb-20 20:30N 35°36' E 140°06'0 0.0
2018-Feb-20 20:00N 35°36' E 140°06'0 0.0
2018-Feb-20 19:30N 35°36' E 140°06'0 0.0
2018-Feb-20 19:00N 35°36' E 140°06'0 0.0
2018-Feb-20 18:30N 35°36' E 140°06'0 0.0
2018-Feb-20 18:00N 35°36' E 140°06'0 0.0
2018-Feb-20 17:27N 35°36' E 140°06'0 0.0
2018-Feb-20 17:00N 35°36' E 140°06'0 0.0
2018-Feb-20 16:30N 35°36' E 140°06'0 0.0
2018-Feb-20 15:54N 35°36' E 140°06'0 0.0
2018-Feb-20 15:27N 35°36' E 140°06'0 0.0
2018-Feb-20 15:00N 35°36' E 140°06'0 0.0
2018-Feb-20 14:30N 35°36' E 140°06'0 0.0
2018-Feb-20 14:00N 35°36' E 140°06'0 0.0
2018-Feb-20 13:30N 35°36' E 140°06'0 0.0
2018-Feb-20 13:00N 35°36' E 140°06'0 0.0
2018-Feb-20 12:30N 35°36' E 140°06'0 0.0
2018-Feb-20 11:48N 35°36' E 140°06'0 0.0
2018-Feb-20 11:30N 35°36' E 140°06'0 0.0
2018-Feb-20 11:00N 35°36' E 140°06'0 0.0
2018-Feb-20 10:30N 35°36' E 140°06'0 0.0
2018-Feb-20 10:00N 35°36' E 140°06'0 0.0
2018-Feb-20 09:30N 35°36' E 140°06'0 0.0
2018-Feb-20 09:00N 35°36' E 140°06'0 0.0
2018-Feb-20 08:30N 35°36' E 140°06'0 0.0
2018-Feb-20 08:00N 35°36' E 140°06'0 0.0
2018-Feb-20 07:30N 35°36' E 140°06'0 0.0
2018-Feb-20 06:54N 35°36' E 140°06'0 0.0
2018-Feb-20 06:30N 35°36' E 140°06'0 0.0
2018-Feb-20 06:00N 35°36' E 140°06'0 0.0
2018-Feb-20 05:30N 35°36' E 140°06'0 0.0
2018-Feb-20 05:00N 35°36' E 140°06'0 0.0
2018-Feb-20 04:30N 35°36' E 140°06'0 0.0
2018-Feb-20 04:00N 35°36' E 140°06'4 8.8
2018-Feb-20 03:30N 35°35' E 140°01'612.7
2018-Feb-20 03:00N 35°32' E 139°54'612.3
2018-Feb-20 02:30N 35°30' E 139°47'2 0.6
2018-Feb-20 00:02N 35°32' E 139°46'0 0.0
2018-Feb-20 00:00N 35°32' E 139°46'2 3.3
2018-Feb-19 23:30N 35°30' E 139°47'3 5.1
2018-Feb-19 23:01N 35°28' E 139°48'612.4
2018-Feb-19 22:31N 35°22' E 139°45'611.2
2018-Feb-19 22:01N 35°17' E 139°46'611.9
2018-Feb-19 21:30N 35°11' E 139°46'1112.0
2018-Feb-19 20:35N 35°02' E 139°39'212.4
2018-Feb-19 20:28N 35°01' E 139°37'2412.7
2018-Feb-19 18:34N 34°46' E 139°14'213.9
2018-Feb-19 18:26N 34°45' E 139°12'612.9
2018-Feb-19 18:00N 34°41' E 139°07'1013.4
2018-Feb-19 17:14N 34°36' E 138°57'10312.7
2018-Feb-19 09:06N 34°39' E 136°51'112.1
2018-Feb-19 08:59N 34°40' E 136°50'612.7
2018-Feb-19 08:30N 34°46' E 136°47'612.4
2018-Feb-19 08:00N 34°52' E 136°46'612.3
2018-Feb-19 07:30N 34°58' E 136°48'611.7
2018-Feb-19 07:01N 35°03' E 136°51'3 4.9
2018-Feb-19 06:29N 35°05' E 136°53'0 0.0
2018-Feb-19 05:59N 35°05' E 136°53'0 0.0
2018-Feb-19 05:29N 35°05' E 136°53'0 0.0
2018-Feb-19 04:23N 35°05' E 136°53'0 0.0
2018-Feb-19 03:59N 35°05' E 136°53'0 0.3
2018-Feb-19 03:31N 35°05' E 136°53'5 9.6
2018-Feb-19 03:00N 35°01' E 136°49'611.1
2018-Feb-19 02:30N 34°58' E 136°43'4 1.3
2018-Feb-18 23:36N 34°58' E 136°39'0 1.7
2018-Feb-18 23:30N 34°58' E 136°39'1 2.0
2018-Feb-18 23:00N 34°57' E 136°40'0 0.0
2018-Feb-18 22:27N 34°57' E 136°40'0 0.0
2018-Feb-18 22:00N 34°57' E 136°40'0 0.0
2018-Feb-18 21:27N 34°57' E 136°40'0 0.0
2018-Feb-18 21:00N 34°57' E 136°40'0 0.0
2018-Feb-18 20:30N 34°57' E 136°40'0 0.0
2018-Feb-18 19:57N 34°57' E 136°40'0 0.0
2018-Feb-18 19:30N 34°57' E 136°40'0 0.0
2018-Feb-18 19:00N 34°57' E 136°40'0 0.0
2018-Feb-18 18:30N 34°57' E 136°40'0 0.0
2018-Feb-18 18:00N 34°57' E 136°40'0 0.0
2018-Feb-18 17:30N 34°57' E 136°40'0 0.0
2018-Feb-18 17:00N 34°57' E 136°40'0 0.0
2018-Feb-18 16:30N 34°57' E 136°40'0 0.0
2018-Feb-18 15:57N 34°57' E 136°40'0 0.0
2018-Feb-18 15:30N 34°57' E 136°40'0 0.0
2018-Feb-18 15:00N 34°57' E 136°40'0 0.0
2018-Feb-18 14:30N 34°57' E 136°40'0 0.0
2018-Feb-18 13:57N 34°57' E 136°40'0 0.0
2018-Feb-18 13:30N 34°57' E 136°40'0 0.0
2018-Feb-18 13:00N 34°57' E 136°40'0 0.0
2018-Feb-18 12:30N 34°57' E 136°40'0 0.0
2018-Feb-18 12:00N 34°57' E 136°40'0 0.0
2018-Feb-18 11:30N 34°57' E 136°40'0 0.0
2018-Feb-18 11:00N 34°57' E 136°40'0 0.0
2018-Feb-18 10:30N 34°57' E 136°40'0 0.0
2018-Feb-18 09:57N 34°57' E 136°40'0 0.0
2018-Feb-18 09:27N 34°57' E 136°40'0 0.0
2018-Feb-18 09:00N 34°57' E 136°40'0 0.0
2018-Feb-18 08:27N 34°57' E 136°40'0 0.0
2018-Feb-18 08:00N 34°57' E 136°40'0 0.0
2018-Feb-18 07:30N 34°57' E 136°40'0 0.0
2018-Feb-18 06:57N 34°57' E 136°40'0 0.0
2018-Feb-18 06:30N 34°57' E 136°40'0 0.0
2018-Feb-18 06:00N 34°57' E 136°40'0 0.0
2018-Feb-18 05:30N 34°57' E 136°40'0 0.0
2018-Feb-18 05:00N 34°57' E 136°40'0 0.0
2018-Feb-18 04:30N 34°57' E 136°40'0 0.1
2018-Feb-18 04:00N 34°57' E 136°40'0 0.1
2018-Feb-18 03:30N 34°57' E 136°40'0 0.1
2018-Feb-18 03:00N 34°57' E 136°40'0 0.0
2018-Feb-18 02:30N 34°57' E 136°40'0 0.0
2018-Feb-18 02:00N 34°57' E 136°40'0 0.0
2018-Feb-18 01:30N 34°57' E 136°40'0 0.0
2018-Feb-18 01:00N 34°57' E 136°40'0 0.0
2018-Feb-18 00:21N 34°57' E 136°40'0 0.0
2018-Feb-17 23:57N 34°57' E 136°40'0 0.0
2018-Feb-17 23:30N 34°57' E 136°40'0 0.0
2018-Feb-17 23:00N 34°57' E 136°40'0 0.0
2018-Feb-17 22:30N 34°57' E 136°40'0 0.0
2018-Feb-17 22:00N 34°57' E 136°40'5 9.1
2018-Feb-17 21:30N 34°53' E 136°43'612.4
2018-Feb-17 21:00N 34°48' E 136°46'612.2
2018-Feb-17 20:30N 34°43' E 136°50'103 8.3
2018-Feb-17 07:58N 33°51' E 135°02'613.3
2018-Feb-17 07:31N 33°56' E 134°57'713.2
2018-Feb-17 07:00N 34°01' E 134°52'1013.4
2018-Feb-17 06:16N 34°09' E 134°44'514.1
2018-Feb-17 05:54N 34°13' E 134°40'613.7
2018-Feb-17 05:29N 34°17' E 134°35'713.3
2018-Feb-17 04:59N 34°19' E 134°28'87 5.0
2018-Feb-16 11:25N 33°60' E 132°45'614.2
2018-Feb-16 11:00N 33°56' E 132°40'714.1
2018-Feb-16 10:30N 33°52' E 132°32'813.7
2018-Feb-16 09:54N 33°50' E 132°23'613.8
2018-Feb-16 09:28N 33°50' E 132°15'613.3
2018-Feb-16 09:00N 33°48' E 132°08'612.8
2018-Feb-16 08:30N 33°46' E 132°01'712.9
2018-Feb-16 08:00N 33°46' E 131°53'613.0
2018-Feb-16 07:30N 33°47' E 131°46'713.0
2018-Feb-16 07:00N 33°48' E 131°38'713.2
2018-Feb-16 06:30N 33°50' E 131°30'713.4
2018-Feb-16 06:00N 33°51' E 131°22'713.6
2018-Feb-16 05:30N 33°52' E 131°14'4 6.3
2018-Feb-16 04:54N 33°56' E 131°15'0 0.0
2018-Feb-16 04:30N 33°56' E 131°15'0 0.0
2018-Feb-16 04:00N 33°56' E 131°15'0 0.0
2018-Feb-16 03:27N 33°56' E 131°15'0 0.0
2018-Feb-16 03:00N 33°56' E 131°15'0 0.0
2018-Feb-16 02:18N 33°56' E 131°15'0 0.0
2018-Feb-16 01:58N 33°56' E 131°15'3 6.2
2018-Feb-16 01:30N 33°56' E 131°12'1 1.8
2018-Feb-16 00:59N 33°56' E 131°12'0 0.0
2018-Feb-16 00:29N 33°56' E 131°12'0 0.0
2018-Feb-15 23:59N 33°56' E 131°12'0 0.0
2018-Feb-15 23:29N 33°56' E 131°12'1 1.6
2018-Feb-15 23:00N 33°56' E 131°12'1 2.3
2018-Feb-15 22:30N 33°55' E 131°11'0 0.0
2018-Feb-15 22:00N 33°55' E 131°11'0 0.0
2018-Feb-15 21:30N 33°55' E 131°11'0 0.0
2018-Feb-15 21:00N 33°55' E 131°11'0 0.0
2018-Feb-15 20:30N 33°55' E 131°11'0 0.0
2018-Feb-15 20:00N 33°55' E 131°11'0 0.0
2018-Feb-15 19:30N 33°55' E 131°11'0 0.0
2018-Feb-15 19:00N 33°55' E 131°11'0 0.0
2018-Feb-15 18:30N 33°55' E 131°11'0 0.0
2018-Feb-15 18:00N 33°55' E 131°11'0 0.1
2018-Feb-15 17:30N 33°55' E 131°11'0 0.0
2018-Feb-15 17:00N 33°55' E 131°11'0 0.0
2018-Feb-15 16:27N 33°55' E 131°11'0 0.0
2018-Feb-15 16:00N 33°55' E 131°11'0 0.0
2018-Feb-15 15:30N 33°55' E 131°11'0 0.0
2018-Feb-15 15:00N 33°55' E 131°11'0 0.0
2018-Feb-15 14:30N 33°55' E 131°11'0 0.0
2018-Feb-15 14:00N 33°55' E 131°11'0 0.0
2018-Feb-15 13:30N 33°55' E 131°11'0 0.0
2018-Feb-15 13:00N 33°55' E 131°11'1 1.9
2018-Feb-15 12:30N 33°54' E 131°12'612.6
2018-Feb-15 12:01N 33°51' E 131°19'713.3
2018-Feb-15 11:31N 33°50' E 131°27'713.2
2018-Feb-15 11:00N 33°49' E 131°35'713.3
2018-Feb-15 10:30N 33°48' E 131°43'713.4
2018-Feb-15 10:00N 33°47' E 131°51'912.8
2018-Feb-15 09:19N 33°46' E 132°01'412.8
2018-Feb-15 09:00N 33°47' E 132°06'812.6
2018-Feb-15 08:21N 33°50' E 132°15'412.7
2018-Feb-15 08:00N 33°50' E 132°20'1012.9
2018-Feb-15 07:12N 33°53' E 132°32'313.5
2018-Feb-15 07:00N 33°54' E 132°35'714.1
2018-Feb-15 06:31N 33°58' E 132°42'814.2
2018-Feb-15 05:57N 34°04' E 132°48'79 2.8
2018-Feb-14 01:59N 34°22' E 134°21'612.4
2018-Feb-14 01:30N 34°20' E 134°28'713.0
2018-Feb-14 00:59N 34°17' E 134°35'612.0
2018-Feb-14 00:30N 34°13' E 134°41'612.4
2018-Feb-14 00:00N 34°09' E 134°46'612.5
2018-Feb-13 23:30N 34°04' E 134°51'612.6
2018-Feb-13 23:00N 33°59' E 134°55'712.9
2018-Feb-13 22:29N 33°54' E 135°00'102 7.8
2018-Feb-13 09:26N 34°41' E 136°50'613.0
2018-Feb-13 08:59N 34°46' E 136°47'612.7
2018-Feb-13 08:30N 34°52' E 136°46'612.2
2018-Feb-13 08:00N 34°58' E 136°48'3 5.8
2018-Feb-13 07:28N 35°00' E 136°51'0 0.0
2018-Feb-13 06:58N 35°00' E 136°51'0 0.0
2018-Feb-13 06:28N 35°00' E 136°51'0 0.0
2018-Feb-13 05:59N 35°00' E 136°51'0 0.0
2018-Feb-13 05:29N 35°00' E 136°51'0 0.0
2018-Feb-13 04:59N 35°00' E 136°51'0 0.0
2018-Feb-13 04:28N 35°00' E 136°51'0 0.0
2018-Feb-13 03:58N 35°00' E 136°51'0 0.0
2018-Feb-13 03:28N 35°00' E 136°51'2 3.4
2018-Feb-13 03:01N 34°60' E 136°49'1 2.0
2018-Feb-13 02:28N 34°59' E 136°48'0 0.0
2018-Feb-13 01:55N 34°59' E 136°48'0 0.0
2018-Feb-13 01:25N 34°59' E 136°48'0 0.0
2018-Feb-13 00:58N 34°59' E 136°48'0 0.0
2018-Feb-13 00:28N 34°59' E 136°48'0 0.0
2018-Feb-12 23:58N 34°59' E 136°48'0 0.1
2018-Feb-12 23:28N 34°59' E 136°48'0 0.0
2018-Feb-12 22:58N 34°59' E 136°48'0 0.0
2018-Feb-12 22:28N 34°59' E 136°48'0 0.1
2018-Feb-12 21:58N 34°59' E 136°48'0 0.0
2018-Feb-12 21:28N 34°59' E 136°48'0 0.0
2018-Feb-12 20:58N 34°59' E 136°48'0 0.0
2018-Feb-12 20:28N 34°59' E 136°48'0 0.0
2018-Feb-12 19:58N 34°59' E 136°48'0 0.0
2018-Feb-12 19:28N 34°59' E 136°48'0 0.0
2018-Feb-12 18:58N 34°59' E 136°48'0 0.0
2018-Feb-12 18:25N 34°59' E 136°48'0 0.0
2018-Feb-12 17:58N 34°59' E 136°48'0 0.0
2018-Feb-12 17:28N 34°59' E 136°48'0 0.0
2018-Feb-12 16:58N 34°59' E 136°48'0 0.1
2018-Feb-12 16:28N 34°59' E 136°48'0 0.0
2018-Feb-12 15:58N 34°59' E 136°48'0 0.0
2018-Feb-12 15:16N 34°59' E 136°48'0 0.0
2018-Feb-12 14:58N 34°59' E 136°48'0 0.1
2018-Feb-12 14:28N 34°59' E 136°48'0 0.0
2018-Feb-12 13:55N 34°59' E 136°48'0 0.1
2018-Feb-12 13:28N 34°59' E 136°48'0 0.1
2018-Feb-12 12:58N 34°59' E 136°48'0 0.0
2018-Feb-12 12:28N 34°59' E 136°48'0 0.0
2018-Feb-12 11:58N 34°59' E 136°48'0 0.0
2018-Feb-12 11:28N 34°59' E 136°48'0 0.0
2018-Feb-12 10:58N 34°59' E 136°48'0 0.0
2018-Feb-12 10:28N 34°59' E 136°48'0 0.1
2018-Feb-12 09:58N 34°59' E 136°48'0 0.0
2018-Feb-12 09:28N 34°59' E 136°48'0 0.0
2018-Feb-12 08:58N 34°59' E 136°48'0 0.1
2018-Feb-12 08:28N 34°59' E 136°48'2 3.5
2018-Feb-12 08:00N 34°58' E 136°47'611.9
2018-Feb-12 07:30N 34°52' E 136°47'611.9
2018-Feb-12 07:00N 34°46' E 136°49'2110.7
2018-Feb-12 05:03N 34°34' E 137°10'112.0
2018-Feb-12 04:59N 34°34' E 137°11'4810.5
2018-Feb-12 00:21N 34°35' E 138°09'3 8.9
2018-Feb-11 23:58N 34°34' E 138°13'4 7.8
2018-Feb-11 23:30N 34°36' E 138°17'5 0.3
2018-Feb-11 08:22N 34°40' E 138°13'0 0.0
2018-Feb-11 07:59N 34°40' E 138°13'0 0.0
2018-Feb-11 07:30N 34°40' E 138°13'0 0.0
2018-Feb-11 06:51N 34°40' E 138°13'  

Dump ship's entire track history